sensor_id;sensor_type;location;lat;lon;timestamp;pressure;altitude;pressure_sealevel;temperature;humidity
7337;BME280;54510;42.016;23.098;2022-12-29T00:01:14;-21419.72;;;10.37;68.57
7337;BME280;54510;42.016;23.098;2022-12-29T00:03:39;-21415.97;;;10.23;68.81
7337;BME280;54510;42.016;23.098;2022-12-29T00:06:05;-21419.16;;;10.35;69.01
7337;BME280;54510;42.016;23.098;2022-12-29T00:08:30;-21419.03;;;10.34;68.42
7337;BME280;54510;42.016;23.098;2022-12-29T00:11:09;-21419.59;;;10.36;68.83
7337;BME280;54510;42.016;23.098;2022-12-29T00:13:35;-21421.66;;;10.44;68.32
7337;BME280;54510;42.016;23.098;2022-12-29T00:16:19;-21415.16;;;10.20;68.37
7337;BME280;54510;42.016;23.098;2022-12-29T00:18:45;-21422.66;;;10.47;68.00
7337;BME280;54510;42.016;23.098;2022-12-29T00:21:14;-21425.00;;;10.56;67.79
7337;BME280;54510;42.016;23.098;2022-12-29T00:23:59;-21415.69;;;10.22;68.18
7337;BME280;54510;42.016;23.098;2022-12-29T00:26:43;-21420.41;;;10.39;68.49
7337;BME280;54510;42.016;23.098;2022-12-29T00:29:27;-21410.97;;;10.05;68.90
7337;BME280;54510;42.016;23.098;2022-12-29T00:32:11;-21411.38;;;10.06;69.90
7337;BME280;54510;42.016;23.098;2022-12-29T00:34:55;-21415.84;;;10.22;69.58
7337;BME280;54510;42.016;23.098;2022-12-29T00:37:41;-21417.09;;;10.27;68.85
7337;BME280;54510;42.016;23.098;2022-12-29T00:40:27;-21417.78;;;10.29;68.61
7337;BME280;54510;42.016;23.098;2022-12-29T00:43:11;-21420.41;;;10.39;68.68
7337;BME280;54510;42.016;23.098;2022-12-29T00:45:54;-21420.84;;;10.41;69.02
7337;BME280;54510;42.016;23.098;2022-12-29T00:48:20;-21413.19;;;10.13;68.34
7337;BME280;54510;42.016;23.098;2022-12-29T00:51:06;-21402.63;;;9.74;69.10
7337;BME280;54510;42.016;23.098;2022-12-29T00:53:32;-21404.59;;;9.81;69.24
7337;BME280;54510;42.016;23.098;2022-12-29T00:55:57;-21407.34;;;9.91;70.15
7337;BME280;54510;42.016;23.098;2022-12-29T00:58:23;-21410.69;;;10.04;69.35
7337;BME280;54510;42.016;23.098;2022-12-29T01:00:48;-21411.66;;;10.07;69.11
7337;BME280;54510;42.016;23.098;2022-12-29T01:03:13;-21415.00;;;10.19;68.71
7337;BME280;54510;42.016;23.098;2022-12-29T01:05:39;-21407.50;;;9.92;69.92
7337;BME280;54510;42.016;23.098;2022-12-29T01:08:04;-21415.28;;;10.20;69.48
7337;BME280;54510;42.016;23.098;2022-12-29T01:10:30;-21416.81;;;10.26;68.36
7337;BME280;54510;42.016;23.098;2022-12-29T01:12:55;-21420.00;;;10.38;68.45
7337;BME280;54510;42.016;23.098;2022-12-29T01:15:21;-21413.75;;;10.15;69.14
7337;BME280;54510;42.016;23.098;2022-12-29T01:17:47;-21419.88;;;10.37;68.49
7337;BME280;54510;42.016;23.098;2022-12-29T01:20:12;-21407.91;;;9.94;69.37
7337;BME280;54510;42.016;23.098;2022-12-29T01:22:38;-21407.78;;;9.93;69.86
7337;BME280;54510;42.016;23.098;2022-12-29T01:25:05;-21411.53;;;10.07;69.20
7337;BME280;54510;42.016;23.098;2022-12-29T01:27:31;-21413.47;;;10.14;68.99
7337;BME280;54510;42.016;23.098;2022-12-29T01:29:57;-21416.66;;;10.25;68.70
7337;BME280;54510;42.016;23.098;2022-12-29T01:32:22;-21415.69;;;10.22;68.57
7337;BME280;54510;42.016;23.098;2022-12-29T01:34:48;-21415.97;;;10.23;68.64
7337;BME280;54510;42.016;23.098;2022-12-29T01:37:13;-21413.63;;;10.14;69.11
7337;BME280;54510;42.016;23.098;2022-12-29T01:39:39;-21411.25;;;10.06;69.14
7337;BME280;54510;42.016;23.098;2022-12-29T01:42:04;-21404.88;;;9.82;68.99
7337;BME280;54510;42.016;23.098;2022-12-29T01:44:54;-21405.41;;;9.84;69.39
7337;BME280;54510;42.016;23.098;2022-12-29T01:47:30;-21400.97;;;9.68;69.85
7337;BME280;54510;42.016;23.098;2022-12-29T01:50:04;-21409.03;;;9.98;69.75
7337;BME280;54510;42.016;23.098;2022-12-29T01:52:33;-21409.88;;;10.01;70.06
7337;BME280;54510;42.016;23.098;2022-12-29T01:55:02;-21417.09;;;10.27;68.97
7337;BME280;54510;42.016;23.098;2022-12-29T01:57:33;-21418.06;;;10.30;68.41
7337;BME280;54510;42.016;23.098;2022-12-29T02:00:11;-21408.75;;;9.97;68.22
7337;BME280;54510;42.016;23.098;2022-12-29T02:02:37;-21411.53;;;10.07;69.17
7337;BME280;54510;42.016;23.098;2022-12-29T02:05:07;-21403.31;;;9.77;69.38
7337;BME280;54510;42.016;23.098;2022-12-29T02:07:34;-21385.81;;;9.13;71.30
7337;BME280;54510;42.016;23.098;2022-12-29T02:10:01;-21395.13;;;9.47;71.21
7337;BME280;54510;42.016;23.098;2022-12-29T02:12:27;-21399.84;;;9.64;70.72
7337;BME280;54510;42.016;23.098;2022-12-29T02:14:57;-21396.81;;;9.53;71.05
7337;BME280;54510;42.016;23.098;2022-12-29T02:20:42;-21403.47;;;9.77;70.05
7337;BME280;54510;42.016;23.098;2022-12-29T02:31:38;-21405.00;;;9.83;70.67
7337;BME280;54510;42.016;23.098;2022-12-29T02:42:59;-21414.59;;;10.18;68.98
7337;BME280;54510;42.016;23.098;2022-12-29T02:48:28;-21409.03;;;9.98;70.06
7337;BME280;54510;42.016;23.098;2022-12-29T02:51:14;-21408.63;;;9.96;70.07
7337;BME280;54510;42.016;23.098;2022-12-29T02:53:44;-21409.59;;;10.00;70.47
7337;BME280;54510;42.016;23.098;2022-12-29T02:56:28;-21410.56;;;10.03;70.08
7337;BME280;54510;42.016;23.098;2022-12-29T02:58:53;-21406.81;;;9.89;70.21
7337;BME280;54510;42.016;23.098;2022-12-29T03:01:33;-21414.59;;;10.18;69.54
7337;BME280;54510;42.016;23.098;2022-12-29T03:15:34;-21408.75;;;9.97;69.37
7337;BME280;54510;42.016;23.098;2022-12-29T03:18:23;-21404.03;;;9.79;69.25
7337;BME280;54510;42.016;23.098;2022-12-29T03:20:54;-21406.81;;;9.89;69.52
7337;BME280;54510;42.016;23.098;2022-12-29T03:23:21;-21403.47;;;9.77;70.01
7337;BME280;54510;42.016;23.098;2022-12-29T03:25:51;-21405.00;;;9.83;69.90
7337;BME280;54510;42.016;23.098;2022-12-29T03:28:22;-21401.38;;;9.70;69.79
7337;BME280;54510;42.016;23.098;2022-12-29T03:30:49;-21403.47;;;9.77;70.07
7337;BME280;54510;42.016;23.098;2022-12-29T03:33:17;-21408.75;;;9.97;69.49
7337;BME280;54510;42.016;23.098;2022-12-29T03:35:46;-21413.75;;;10.15;69.02
7337;BME280;54510;42.016;23.098;2022-12-29T03:38:17;-21411.38;;;10.06;68.78
7337;BME280;54510;42.016;23.098;2022-12-29T03:40:48;-21409.31;;;9.99;68.98
7337;BME280;54510;42.016;23.098;2022-12-29T03:43:15;-21409.44;;;9.99;69.13
7337;BME280;54510;42.016;23.098;2022-12-29T03:45:41;-21407.34;;;9.91;69.32
7337;BME280;54510;42.016;23.098;2022-12-29T03:48:06;-21407.91;;;9.94;69.27
7337;BME280;54510;42.016;23.098;2022-12-29T03:50:32;-21406.53;;;9.88;69.58
7337;BME280;54510;42.016;23.098;2022-12-29T03:52:57;-21404.59;;;9.81;69.59
7337;BME280;54510;42.016;23.098;2022-12-29T03:55:22;-21404.59;;;9.81;69.42
7337;BME280;54510;42.016;23.098;2022-12-29T03:57:48;-21407.09;;;9.90;69.53
7337;BME280;54510;42.016;23.098;2022-12-29T04:00:14;-21407.78;;;9.93;69.33
7337;BME280;54510;42.016;23.098;2022-12-29T04:02:39;-21403.88;;;9.79;69.79
7337;BME280;54510;42.016;23.098;2022-12-29T04:05:05;-21406.94;;;9.90;69.59
7337;BME280;54510;42.016;23.098;2022-12-29T04:07:31;-21407.63;;;9.93;69.38
7337;BME280;54510;42.016;23.098;2022-12-29T04:09:56;-21407.34;;;9.91;69.72
7337;BME280;54510;42.016;23.098;2022-12-29T04:12:22;-21409.31;;;9.99;69.41
7337;BME280;54510;42.016;23.098;2022-12-29T04:14:47;-21414.03;;;10.16;69.36
7337;BME280;54510;42.016;23.098;2022-12-29T04:17:12;-21409.16;;;9.98;68.75
7337;BME280;54510;42.016;23.098;2022-12-29T04:19:38;-21415.41;;;10.21;68.75
7337;BME280;54510;42.016;23.098;2022-12-29T04:22:03;-21408.47;;;9.96;69.36
7337;BME280;54510;42.016;23.098;2022-12-29T04:24:29;-21403.06;;;9.76;70.63
7337;BME280;54510;42.016;23.098;2022-12-29T04:26:54;-21406.81;;;9.89;69.63
7337;BME280;54510;42.016;23.098;2022-12-29T04:29:19;-21405.56;;;9.85;69.87
7337;BME280;54510;42.016;23.098;2022-12-29T04:31:45;-21406.53;;;9.88;69.99
7337;BME280;54510;42.016;23.098;2022-12-29T04:34:10;-21410.00;;;10.01;69.75
7337;BME280;54510;42.016;23.098;2022-12-29T04:36:36;-21410.41;;;10.03;69.10
7337;BME280;54510;42.016;23.098;2022-12-29T04:39:01;-21405.00;;;9.83;69.44
7337;BME280;54510;42.016;23.098;2022-12-29T04:41:27;-21402.34;;;9.73;70.00
7337;BME280;54510;42.016;23.098;2022-12-29T04:43:52;-21402.09;;;9.72;70.34
7337;BME280;54510;42.016;23.098;2022-12-29T04:46:18;-21410.41;;;10.03;69.24
7337;BME280;54510;42.016;23.098;2022-12-29T04:48:43;-21414.03;;;10.16;69.29
7337;BME280;54510;42.016;23.098;2022-12-29T04:51:09;-21413.63;;;10.14;68.91
7337;BME280;54510;42.016;23.098;2022-12-29T04:53:34;-21403.75;;;9.78;70.03
7337;BME280;54510;42.016;23.098;2022-12-29T04:56:00;-21412.38;;;10.10;69.26
7337;BME280;54510;42.016;23.098;2022-12-29T04:58:25;-21414.59;;;10.18;69.10
7337;BME280;54510;42.016;23.098;2022-12-29T05:00:51;-21413.88;;;10.15;68.75
7337;BME280;54510;42.016;23.098;2022-12-29T05:03:17;-21416.53;;;10.25;68.78
7337;BME280;54510;42.016;23.098;2022-12-29T05:05:42;-21404.03;;;9.79;69.68
7337;BME280;54510;42.016;23.098;2022-12-29T05:08:08;-21402.63;;;9.74;70.28
7337;BME280;54510;42.016;23.098;2022-12-29T05:10:33;-21407.63;;;9.93;69.83
7337;BME280;54510;42.016;23.098;2022-12-29T05:12:59;-21413.06;;;10.12;69.56
7337;BME280;54510;42.016;23.098;2022-12-29T05:15:25;-21420.41;;;10.39;68.81
7337;BME280;54510;42.016;23.098;2022-12-29T05:18:17;-21421.25;;;10.42;68.01
7337;BME280;54510;42.016;23.098;2022-12-29T05:20:43;-21418.75;;;10.33;67.72
7337;BME280;54510;42.016;23.098;2022-12-29T05:23:09;-21417.38;;;10.28;68.51
7337;BME280;54510;42.016;23.098;2022-12-29T05:25:34;-21419.03;;;10.34;68.32
7337;BME280;54510;42.016;23.098;2022-12-29T05:27:59;-21418.75;;;10.33;68.22
7337;BME280;54510;42.016;23.098;2022-12-29T05:30:25;-21420.41;;;10.39;68.08
7337;BME280;54510;42.016;23.098;2022-12-29T05:32:50;-21416.53;;;10.25;68.33
7337;BME280;54510;42.016;23.098;2022-12-29T05:35:16;-21411.81;;;10.08;68.63
7337;BME280;54510;42.016;23.098;2022-12-29T05:37:41;-21410.69;;;10.04;68.78
7337;BME280;54510;42.016;23.098;2022-12-29T05:40:07;-21412.78;;;10.11;68.59
7337;BME280;54510;42.016;23.098;2022-12-29T05:42:32;-21412.63;;;10.11;68.70
7337;BME280;54510;42.016;23.098;2022-12-29T05:44:58;-21414.59;;;10.18;68.21
7337;BME280;54510;42.016;23.098;2022-12-29T05:47:23;-21416.13;;;10.23;68.04
7337;BME280;54510;42.016;23.098;2022-12-29T05:49:49;-21416.13;;;10.23;68.42
7337;BME280;54510;42.016;23.098;2022-12-29T05:52:43;-21419.16;;;10.35;68.45
7337;BME280;54510;42.016;23.098;2022-12-29T05:55:09;-21422.38;;;10.46;67.69
7337;BME280;54510;42.016;23.098;2022-12-29T05:57:35;-21421.53;;;10.43;67.62
7337;BME280;54510;42.016;23.098;2022-12-29T06:00:00;-21420.13;;;10.38;68.09
7337;BME280;54510;42.016;23.098;2022-12-29T06:02:26;-21419.88;;;10.37;67.48
7337;BME280;54510;42.016;23.098;2022-12-29T06:04:51;-21418.19;;;10.31;68.02
7337;BME280;54510;42.016;23.098;2022-12-29T06:07:17;-21413.34;;;10.13;68.55
7337;BME280;54510;42.016;23.098;2022-12-29T06:09:42;-21409.44;;;9.99;68.52
7337;BME280;54510;42.016;23.098;2022-12-29T06:12:07;-21412.91;;;10.12;69.34
7337;BME280;54510;42.016;23.098;2022-12-29T06:14:33;-21416.53;;;10.25;68.75
7337;BME280;54510;42.016;23.098;2022-12-29T06:16:58;-21416.94;;;10.26;68.02
7337;BME280;54510;42.016;23.098;2022-12-29T06:19:25;-21417.38;;;10.28;68.00
7337;BME280;54510;42.016;23.098;2022-12-29T06:21:50;-21412.50;;;10.10;67.98
7337;BME280;54510;42.016;23.098;2022-12-29T06:24:17;-21414.03;;;10.16;68.03
7337;BME280;54510;42.016;23.098;2022-12-29T06:26:43;-21411.38;;;10.06;69.05
7337;BME280;54510;42.016;23.098;2022-12-29T06:29:08;-21413.19;;;10.13;68.74
7337;BME280;54510;42.016;23.098;2022-12-29T06:31:34;-21412.91;;;10.12;68.71
7337;BME280;54510;42.016;23.098;2022-12-29T06:33:59;-21406.81;;;9.89;69.40
7337;BME280;54510;42.016;23.098;2022-12-29T06:36:25;-21403.31;;;9.77;69.87
7337;BME280;54510;42.016;23.098;2022-12-29T06:38:50;-21407.91;;;9.94;70.06
7337;BME280;54510;42.016;23.098;2022-12-29T06:41:18;-21412.78;;;10.11;68.89
7337;BME280;54510;42.016;23.098;2022-12-29T06:43:43;-21401.53;;;9.70;69.46
7337;BME280;54510;42.016;23.098;2022-12-29T06:46:09;-21413.63;;;10.14;68.67
7337;BME280;54510;42.016;23.098;2022-12-29T06:48:34;-21415.97;;;10.23;68.34
7337;BME280;54510;42.016;23.098;2022-12-29T06:51:00;-21422.38;;;10.46;67.98
7337;BME280;54510;42.016;23.098;2022-12-29T06:53:25;-21416.94;;;10.26;68.11
7337;BME280;54510;42.016;23.098;2022-12-29T06:55:51;-21417.38;;;10.28;67.75
7337;BME280;54510;42.016;23.098;2022-12-29T06:58:17;-21413.34;;;10.13;68.87
7337;BME280;54510;42.016;23.098;2022-12-29T07:00:43;-21417.94;;;10.30;67.88
7337;BME280;54510;42.016;23.098;2022-12-29T07:03:08;-21425.69;;;10.58;67.51
7337;BME280;54510;42.016;23.098;2022-12-29T07:05:34;-21425.69;;;10.58;67.28
7337;BME280;54510;42.016;23.098;2022-12-29T07:07:59;-21431.81;;;10.81;67.35
7337;BME280;54510;42.016;23.098;2022-12-29T07:10:25;-21436.25;;;10.97;66.84
7337;BME280;54510;42.016;23.098;2022-12-29T07:12:51;-21434.72;;;10.91;66.47
7337;BME280;54510;42.016;23.098;2022-12-29T07:15:16;-21434.16;;;10.89;66.60
7337;BME280;54510;42.016;23.098;2022-12-29T07:17:42;-21440.41;;;11.12;66.69
7337;BME280;54510;42.016;23.098;2022-12-29T07:20:08;-21442.47;;;11.20;66.29
7337;BME280;54510;42.016;23.098;2022-12-29T07:22:35;-21440.41;;;11.12;66.00
7337;BME280;54510;42.016;23.098;2022-12-29T07:25:00;-21443.19;;;11.22;65.41
7337;BME280;54510;42.016;23.098;2022-12-29T07:27:26;-21448.44;;;11.41;64.94
7337;BME280;54510;42.016;23.098;2022-12-29T07:29:51;-21450.94;;;11.51;64.77
7337;BME280;54510;42.016;23.098;2022-12-29T07:32:16;-21451.78;;;11.54;64.43
7337;BME280;54510;42.016;23.098;2022-12-29T07:34:42;-21451.66;;;11.53;64.67
7337;BME280;54510;42.016;23.098;2022-12-29T07:37:10;-21452.88;;;11.58;64.48
7337;BME280;54510;42.016;23.098;2022-12-29T07:39:35;-21452.75;;;11.57;64.42
7337;BME280;54510;42.016;23.098;2022-12-29T07:42:00;-21454.41;;;11.63;64.24
7337;BME280;54510;42.016;23.098;2022-12-29T07:44:26;-21450.13;;;11.47;64.62
7337;BME280;54510;42.016;23.098;2022-12-29T07:46:51;-21451.38;;;11.52;64.65
7337;BME280;54510;42.016;23.098;2022-12-29T07:49:17;-21454.69;;;11.64;64.31
7337;BME280;54510;42.016;23.098;2022-12-29T07:51:43;-21455.78;;;11.68;63.97
7337;BME280;54510;42.016;23.098;2022-12-29T07:54:08;-21457.06;;;11.73;64.08
7337;BME280;54510;42.016;23.098;2022-12-29T07:56:34;-21460.25;;;11.84;63.97
7337;BME280;54510;42.016;23.098;2022-12-29T07:58:59;-21461.75;;;11.90;63.42
7337;BME280;54510;42.016;23.098;2022-12-29T08:01:25;-21461.22;;;11.88;63.15
7337;BME280;54510;42.016;23.098;2022-12-29T08:03:50;-21459.53;;;11.82;62.80
7337;BME280;54510;42.016;23.098;2022-12-29T08:06:15;-21458.44;;;11.78;63.20
7337;BME280;54510;42.016;23.098;2022-12-29T08:08:41;-21461.22;;;11.88;63.01
7337;BME280;54510;42.016;23.098;2022-12-29T08:11:06;-21460.09;;;11.84;62.96
7337;BME280;54510;42.016;23.098;2022-12-29T08:13:32;-21465.66;;;12.04;62.40
7337;BME280;54510;42.016;23.098;2022-12-29T08:15:58;-21465.38;;;12.03;61.98
7337;BME280;54510;42.016;23.098;2022-12-29T08:18:24;-21466.47;;;12.07;62.23
7337;BME280;54510;42.016;23.098;2022-12-29T08:20:49;-21470.22;;;12.21;61.37
7337;BME280;54510;42.016;23.098;2022-12-29T08:23:15;-21468.69;;;12.15;61.09
7337;BME280;54510;42.016;23.098;2022-12-29T08:25:40;-21470.22;;;12.21;61.24
7337;BME280;54510;42.016;23.098;2022-12-29T08:28:05;-21468.97;;;12.16;60.61
7337;BME280;54510;42.016;23.098;2022-12-29T08:30:31;-21471.75;;;12.26;60.43
7337;BME280;54510;42.016;23.098;2022-12-29T08:32:56;-21473.25;;;12.32;60.69
7337;BME280;54510;42.016;23.098;2022-12-29T08:35:22;-21474.94;;;12.38;59.99
7337;BME280;54510;42.016;23.098;2022-12-29T08:37:47;-21465.38;;;12.03;59.19
7337;BME280;54510;42.016;23.098;2022-12-29T08:40:12;-21471.31;;;12.25;60.15
7337;BME280;54510;42.016;23.098;2022-12-29T08:42:39;-21472.72;;;12.30;59.54
7337;BME280;54510;42.016;23.098;2022-12-29T08:45:04;-21475.91;;;12.42;59.46
7337;BME280;54510;42.016;23.098;2022-12-29T08:47:30;-21478.94;;;12.53;58.98
7337;BME280;54510;42.016;23.098;2022-12-29T08:49:55;-21483.38;;;12.69;58.31
7337;BME280;54510;42.016;23.098;2022-12-29T08:52:21;-21483.38;;;12.69;58.54
7337;BME280;54510;42.016;23.098;2022-12-29T08:54:46;-21483.78;;;12.71;58.31
7337;BME280;54510;42.016;23.098;2022-12-29T08:57:12;-21474.50;;;12.37;58.69
7337;BME280;54510;42.016;23.098;2022-12-29T08:59:37;-21463.16;;;11.95;60.54
7337;BME280;54510;42.016;23.098;2022-12-29T09:02:03;-21470.09;;;12.20;60.09
7337;BME280;54510;42.016;23.098;2022-12-29T09:04:28;-21468.13;;;12.13;59.67
7337;BME280;54510;42.016;23.098;2022-12-29T09:06:53;-21468.00;;;12.13;59.90
7337;BME280;54510;42.016;23.098;2022-12-29T09:09:20;-21473.53;;;12.33;60.17
7337;BME280;54510;42.016;23.098;2022-12-29T09:11:46;-21480.75;;;12.59;59.52
7337;BME280;54510;42.016;23.098;2022-12-29T09:14:12;-21483.50;;;12.70;59.19
7337;BME280;54510;42.016;23.098;2022-12-29T09:16:37;-21484.63;;;12.74;58.80
7337;BME280;54510;42.016;23.098;2022-12-29T09:19:03;-21484.47;;;12.73;58.92
7337;BME280;54510;42.016;23.098;2022-12-29T09:21:29;-21481.72;;;12.63;59.58
7337;BME280;54510;42.016;23.098;2022-12-29T09:23:54;-21487.25;;;12.83;58.97
7337;BME280;54510;42.016;23.098;2022-12-29T09:26:19;-21486.56;;;12.81;58.84
7337;BME280;54510;42.016;23.098;2022-12-29T09:28:45;-21483.38;;;12.69;59.07
7337;BME280;54510;42.016;23.098;2022-12-29T09:31:11;-21487.81;;;12.85;59.22
7337;BME280;54510;42.016;23.098;2022-12-29T09:33:36;-21486.41;;;12.80;59.18
7337;BME280;54510;42.016;23.098;2022-12-29T09:36:03;-21486.69;;;12.81;59.04
7337;BME280;54510;42.016;23.098;2022-12-29T09:38:29;-21487.38;;;12.84;58.95
7337;BME280;54510;42.016;23.098;2022-12-29T09:41:05;-21486.00;;;12.79;59.34
7337;BME280;54510;42.016;23.098;2022-12-29T09:48:37;-21494.72;;;13.11;58.75
7337;BME280;54510;42.016;23.098;2022-12-29T09:51:13;-21497.22;;;13.20;58.62
7337;BME280;54510;42.016;23.098;2022-12-29T09:53:43;-21495.28;;;13.13;58.88
7337;BME280;54510;42.016;23.098;2022-12-29T09:56:15;-21497.50;;;13.21;59.03
7337;BME280;54510;42.016;23.098;2022-12-29T09:58:50;-21499.03;;;13.26;58.76
7337;BME280;54510;42.016;23.098;2022-12-29T10:03:48;-21503.44;;;13.42;58.75
7337;BME280;54510;42.016;23.098;2022-12-29T10:08:58;-21513.25;;;13.78;57.52
7337;BME280;54510;42.016;23.098;2022-12-29T10:25:39;-21518.25;;;13.97;56.80
7337;BME280;54510;42.016;23.098;2022-12-29T10:28:17;-21520.47;;;14.05;56.77
7337;BME280;54510;42.016;23.098;2022-12-29T10:30:46;-21515.63;;;13.87;56.60
7337;BME280;54510;42.016;23.098;2022-12-29T10:33:16;-21522.13;;;14.11;56.89
7337;BME280;54510;42.016;23.098;2022-12-29T10:35:44;-21523.50;;;14.16;56.86
7337;BME280;54510;42.016;23.098;2022-12-29T10:45:47;-21524.88;;;14.21;57.19
7337;BME280;54510;42.016;23.098;2022-12-29T10:48:20;-21527.91;;;14.32;57.10
7337;BME280;54510;42.016;23.098;2022-12-29T10:50:48;-21527.66;;;14.31;56.65
7337;BME280;54510;42.016;23.098;2022-12-29T10:53:24;-21525.44;;;14.23;56.83
7337;BME280;54510;42.016;23.098;2022-12-29T10:55:51;-21527.38;;;14.30;56.70
7337;BME280;54510;42.016;23.098;2022-12-29T10:58:16;-21528.47;;;14.34;56.93
7337;BME280;54510;42.016;23.098;2022-12-29T11:00:43;-21536.50;;;14.63;56.73
7337;BME280;54510;42.016;23.098;2022-12-29T11:03:38;-21538.00;;;14.69;56.60
7337;BME280;54510;42.016;23.098;2022-12-29T11:08:41;-21539.25;;;14.74;56.82
7337;BME280;54510;42.016;23.098;2022-12-29T11:11:10;-21550.03;;;15.13;56.37
7337;BME280;54510;42.016;23.098;2022-12-29T11:13:50;-21556.09;;;15.35;55.97
7337;BME280;54510;42.016;23.098;2022-12-29T11:16:33;-21549.06;;;15.10;55.75
7337;BME280;54510;42.016;23.098;2022-12-29T11:19:00;-21549.19;;;15.10;56.21
7337;BME280;54510;42.016;23.098;2022-12-29T11:21:37;-21551.41;;;15.18;56.14
7337;BME280;54510;42.016;23.098;2022-12-29T11:24:19;-21548.38;;;15.07;55.94
7337;BME280;54510;42.016;23.098;2022-12-29T11:26:45;-21550.16;;;15.14;56.21
7337;BME280;54510;42.016;23.098;2022-12-29T11:29:20;-21552.09;;;15.21;56.46
7337;BME280;54510;42.016;23.098;2022-12-29T11:31:54;-21561.47;;;15.55;55.78
7337;BME280;54510;42.016;23.098;2022-12-29T11:34:26;-21565.63;;;15.70;55.13
7337;BME280;54510;42.016;23.098;2022-12-29T11:37:02;-21566.72;;;15.74;54.82
7337;BME280;54510;42.016;23.098;2022-12-29T11:41:56;-21574.84;;;16.04;54.35
7337;BME280;54510;42.016;23.098;2022-12-29T11:44:23;-21575.69;;;16.07;53.74
7337;BME280;54510;42.016;23.098;2022-12-29T11:46:51;-21579.69;;;16.22;53.57
7337;BME280;54510;42.016;23.098;2022-12-29T11:49:23;-21574.59;;;16.03;53.62
7337;BME280;54510;42.016;23.098;2022-12-29T11:51:51;-21578.72;;;16.18;53.44
7337;BME280;54510;42.016;23.098;2022-12-29T11:54:26;-21580.78;;;16.26;53.66
7337;BME280;54510;42.016;23.098;2022-12-29T11:56:53;-21577.19;;;16.13;53.66
7337;BME280;54510;42.016;23.098;2022-12-29T12:02:00;-21579.41;;;16.21;53.85
7337;BME280;54510;42.016;23.098;2022-12-29T12:04:30;-21575.00;;;16.05;53.88
7337;BME280;54510;42.016;23.098;2022-12-29T12:09:45;-21572.38;;;15.95;54.47
7337;BME280;54510;42.016;23.098;2022-12-29T12:12:26;-21582.44;;;16.32;53.64
7337;BME280;54510;42.016;23.098;2022-12-29T12:14:56;-21588.63;;;16.55;53.04
7337;BME280;54510;42.016;23.098;2022-12-29T12:18:00;-21585.47;;;16.43;52.67
7337;BME280;54510;42.016;23.098;2022-12-29T12:20:49;-21586.16;;;16.46;52.95
7337;BME280;54510;42.016;23.098;2022-12-29T12:23:29;-21583.00;;;16.34;53.28
7337;BME280;54510;42.016;23.098;2022-12-29T12:29:01;-21588.38;;;16.54;53.23
7337;BME280;54510;42.016;23.098;2022-12-29T12:34:40;-21587.41;;;16.50;52.62
7337;BME280;54510;42.016;23.098;2022-12-29T12:49:11;-21583.94;;;16.38;53.28
7337;BME280;54510;42.016;23.098;2022-12-29T12:57:26;-21575.69;;;16.07;53.79
7337;BME280;54510;42.016;23.098;2022-12-29T13:00:03;-21579.41;;;16.21;53.63
7337;BME280;54510;42.016;23.098;2022-12-29T13:02:37;-21587.81;;;16.52;53.34
7337;BME280;54510;42.016;23.098;2022-12-29T13:15:51;-21612.19;;;17.42;50.21
7337;BME280;54510;42.016;23.098;2022-12-29T13:18:28;-21613.16;;;17.45;50.24
7337;BME280;54510;42.016;23.098;2022-12-29T13:21:19;-21607.38;;;17.24;50.33
7337;BME280;54510;42.016;23.098;2022-12-29T13:26:46;-21615.91;;;17.55;49.94
7337;BME280;54510;42.016;23.098;2022-12-29T13:29:27;-21617.69;;;17.62;49.72
7337;BME280;54510;42.016;23.098;2022-12-29T13:34:37;-21603.78;;;17.11;50.75
7337;BME280;54510;42.016;23.098;2022-12-29T13:37:20;-21601.44;;;17.02;51.14
7337;BME280;54510;42.016;23.098;2022-12-29T13:40:00;-21603.53;;;17.10;50.79
7337;BME280;54510;42.016;23.098;2022-12-29T13:42:27;-21598.28;;;16.90;51.30
7337;BME280;54510;42.016;23.098;2022-12-29T13:45:06;-21604.63;;;17.14;50.85
7337;BME280;54510;42.016;23.098;2022-12-29T13:47:39;-21604.91;;;17.15;50.71
7337;BME280;54510;42.016;23.098;2022-12-29T13:50:15;-21614.53;;;17.50;50.28
7337;BME280;54510;42.016;23.098;2022-12-29T13:53:06;-21612.59;;;17.43;50.23
7337;BME280;54510;42.016;23.098;2022-12-29T13:56:00;-21614.81;;;17.51;49.82
7337;BME280;54510;42.016;23.098;2022-12-29T14:04:12;-21621.69;;;17.76;49.25
7337;BME280;54510;42.016;23.098;2022-12-29T14:06:38;-21615.50;;;17.54;49.75
7337;BME280;54510;42.016;23.098;2022-12-29T14:09:28;-21613.16;;;17.45;49.88
7337;BME280;54510;42.016;23.098;2022-12-29T14:11:52;-21617.84;;;17.62;49.91
7337;BME280;54510;42.016;23.098;2022-12-29T14:14:19;-21622.50;;;17.80;49.65
7337;BME280;54510;42.016;23.098;2022-12-29T14:16:47;-21627.75;;;17.99;48.91
7337;BME280;54510;42.016;23.098;2022-12-29T14:19:18;-21612.47;;;17.43;49.76
7337;BME280;54510;42.016;23.098;2022-12-29T14:21:53;-21613.56;;;17.47;49.93
7337;BME280;54510;42.016;23.098;2022-12-29T14:27:51;-21592.09;;;16.68;51.65
7337;BME280;54510;42.016;23.098;2022-12-29T14:29:50;-21593.75;;;16.74;51.72
7337;BME280;54510;42.016;23.098;2022-12-29T14:34:57;-21598.44;;;16.91;51.26
7337;BME280;54510;42.016;23.098;2022-12-29T14:37:31;-21599.53;;;16.95;51.50
7337;BME280;54510;42.016;23.098;2022-12-29T14:42:29;-21589.88;;;16.59;52.04
7337;BME280;54510;42.016;23.098;2022-12-29T14:45:06;-21583.81;;;16.37;52.48
7337;BME280;54510;42.016;23.098;2022-12-29T14:47:43;-21579.53;;;16.22;52.69
7337;BME280;54510;42.016;23.098;2022-12-29T14:50:22;-21572.25;;;15.95;53.57
7337;BME280;54510;42.016;23.098;2022-12-29T14:53:01;-21567.81;;;15.78;54.06
7337;BME280;54510;42.016;23.098;2022-12-29T14:55:46;-21557.47;;;15.40;54.87
7337;BME280;54510;42.016;23.098;2022-12-29T14:58:29;-21536.75;;;14.65;56.38
7337;BME280;54510;42.016;23.098;2022-12-29T15:00:56;-21524.88;;;14.21;57.62
7337;BME280;54510;42.016;23.098;2022-12-29T15:03:28;-21527.91;;;14.32;57.66
7337;BME280;54510;42.016;23.098;2022-12-29T15:06:09;-21531.94;;;14.47;57.49
7337;BME280;54510;42.016;23.098;2022-12-29T15:08:46;-21526.94;;;14.29;57.72
7337;BME280;54510;42.016;23.098;2022-12-29T15:11:20;-21514.09;;;13.81;59.02
7337;BME280;54510;42.016;23.098;2022-12-29T15:13:49;-21511.59;;;13.72;59.60
7337;BME280;54510;42.016;23.098;2022-12-29T15:16:24;-21507.47;;;13.57;59.87